Terminal Aerodrome Forecast
Issued by NWS Pittsburgh, PA

Current Version | Previous Version | Graphics & Text | Print | Product List | Glossary On
Versions: 1 2 3 4 5 6 7 8 9 10 11 12 13 14 15 16 17 18 19 20 21 22 23 24 25 26 27
000
FTUS41 KPBZ 101737
TAFPIT
TAF
KPIT 101737Z 1018/1124 24010G18KT P6SM BKN025
     FM101900 24012G20KT P6SM SCT025 BKN060
     FM110500 24010KT P6SM VCSH OVC025
     FM110900 27012KT P6SM OVC015
     FM111800 22006KT P6SM BKN040=

USA.gov is the U.S. government's official web portal to all federal, state and local government web resources and services.